Ocean Winner — A8PV2 — position and weather

sailwx.info

Track history (hours):
 
Tides and Currents Weather Stations Pressure Air Temp Water Temp Dewpoint Dewpoint Depression Visibility Wind Speed Wind Dir Waves Ship Positions

Ocean Winner

Last reported at 2018-Feb-10 09:50 UTC. Time now 2018-Feb-23 04:57 UTC.
Position N 31°47' E 031°54'.
Warning: this ship's position is 12 days out of date.

Length 116 m; draft 5.2 m.

Type: Cargo ship. MMSI: 636013840.

Date/timePositionNaut miles runAvg speedWind from/ knotsBaromVisibWave heightAir tempDewpointWater temp
2018-Feb-10 09:50N 31°47' E 031°54'3610.6
2018-Feb-10 06:29N 32°04' E 031°17'911.2
2018-Feb-10 05:42N 32°08' E 031°08'411.4
2018-Feb-10 05:23N 32°09' E 031°04'511.5
2018-Feb-10 04:55N 32°12' E 030°59'1111.7
2018-Feb-10 04:01N 32°17' E 030°48'011.0
2018-Feb-10 04:00N 32°17' E 030°48'1311.5
2018-Feb-10 02:52N 32°23' E 030°34'411.4
2018-Feb-10 02:29N 32°25' E 030°29'4710.8
2018-Feb-09 22:06N 32°47' E 029°40'1710.7
2018-Feb-09 20:30N 32°55' E 029°22'510.7
2018-Feb-09 20:00N 32°58' E 029°16'  
2018-Feb-04 15:30N 36°09' E 014°23'611.4
2018-Feb-04 15:00N 36°11' E 014°17'611.4
2018-Feb-04 14:30N 36°14' E 014°10'611.7
2018-Feb-04 14:00N 36°16' E 014°03'611.8
2018-Feb-04 13:30N 36°18' E 013°57'611.9
2018-Feb-04 12:59N 36°21' E 013°50'611.7
2018-Feb-04 12:30N 36°23' E 013°44'13511.6
2018-Feb-04 00:54N 37°21' E 011°11'512.4
2018-Feb-04 00:30N 37°23' E 011°05'611.9
2018-Feb-04 00:00N 37°25' E 010°58'611.6
2018-Feb-03 23:30N 37°27' E 010°51'611.7
2018-Feb-03 23:00N 37°28' E 010°44'611.7
2018-Feb-03 22:30N 37°30' E 010°37'611.4
2018-Feb-03 22:00N 37°32' E 010°30'  
2018-Feb-01 02:16N 35°57' W 005°08'311.2
2018-Feb-01 02:00N 35°57' W 005°11'611.7
2018-Feb-01 01:31N 35°57' W 005°18'611.4
2018-Feb-01 01:01N 35°57' W 005°26'  
Track history (hours):
 
Tides and Currents Weather Stations Pressure Air Temp Water Temp Dewpoint Dewpoint Depression Visibility Wind Speed Wind Dir Waves Ship Positions

Ocean Winner

Last reported at 2018-Feb-10 09:50 UTC. Time now 2018-Feb-23 04:57 UTC.
Position N 31°47' E 031°54'.
Warning: this ship's position is 12 days out of date.

Length 116 m; draft 5.2 m.

Type: Cargo ship. MMSI: 636013840.

Date/timePositionNaut miles runAvg speedWind from/ knotsBaromVisibWave heightAir tempDewpointWater temp
2018-Feb-10 09:50N 31°47' E 031°54'3610.6
2018-Feb-10 06:29N 32°04' E 031°17'911.2
2018-Feb-10 05:42N 32°08' E 031°08'411.4
2018-Feb-10 05:23N 32°09' E 031°04'511.5
2018-Feb-10 04:55N 32°12' E 030°59'1111.7
2018-Feb-10 04:01N 32°17' E 030°48'011.0
2018-Feb-10 04:00N 32°17' E 030°48'1311.5
2018-Feb-10 02:52N 32°23' E 030°34'411.4
2018-Feb-10 02:29N 32°25' E 030°29'4710.8
2018-Feb-09 22:06N 32°47' E 029°40'1710.7
2018-Feb-09 20:30N 32°55' E 029°22'510.7
2018-Feb-09 20:00N 32°58' E 029°16'  
2018-Feb-04 15:30N 36°09' E 014°23'611.4
2018-Feb-04 15:00N 36°11' E 014°17'611.4
2018-Feb-04 14:30N 36°14' E 014°10'611.7
2018-Feb-04 14:00N 36°16' E 014°03'611.8
2018-Feb-04 13:30N 36°18' E 013°57'611.9
2018-Feb-04 12:59N 36°21' E 013°50'611.7
2018-Feb-04 12:30N 36°23' E 013°44'13511.6
2018-Feb-04 00:54N 37°21' E 011°11'512.4
2018-Feb-04 00:30N 37°23' E 011°05'611.9
2018-Feb-04 00:00N 37°25' E 010°58'611.6
2018-Feb-03 23:30N 37°27' E 010°51'611.7
2018-Feb-03 23:00N 37°28' E 010°44'611.7
2018-Feb-03 22:30N 37°30' E 010°37'611.4
2018-Feb-03 22:00N 37°32' E 010°30'  
2018-Feb-01 02:16N 35°57' W 005°08'311.2
2018-Feb-01 02:00N 35°57' W 005°11'611.7
2018-Feb-01 01:31N 35°57' W 005°18'611.4
2018-Feb-01 01:01N 35°57' W 005°26'  

Dump ship's entire track history